Time;durP1;ratioP1;P1;durP2;ratioP2;P2;SDS_P1;SDS_P2;PMS_P1;PMS_P2;Temp;Humidity;BMP_temperature;BMP_pressure;BME280_temperature;BME280_humidity;BME280_pressure;Samples;Min_cycle;Max_cycle;Signal;HPM_P1;HPM_P2
2024/01/11 00:00:14;;;;;;;23.73;11.40;;;-2.20;1.00;;;;;;5037616;28;20041;-66
2024/01/11 00:02:40;;;;;;;26.10;10.93;;;-2.20;1.00;;;;;;5037574;28;20262;-67
2024/01/11 00:05:06;;;;;;;24.10;11.25;;;-2.20;1.00;;;;;;5038209;28;20055;-67
2024/01/11 00:07:32;;;;;;;23.20;11.93;;;-2.30;1.00;;;;;;5037397;28;20029;-67
2024/01/11 00:09:58;;;;;;;23.80;11.68;;;-2.40;1.00;;;;;;5020816;28;20043;-67
2024/01/11 00:12:24;;;;;;;25.50;11.63;;;-2.40;63.20;;;;;;5038106;28;20022;-66
2024/01/11 00:14:50;;;;;;;22.50;11.38;;;-2.40;99.90;;;;;;5038037;28;20060;-67
2024/01/11 00:17:16;;;;;;;20.58;10.88;;;-2.40;99.90;;;;;;5036465;28;20025;-67
2024/01/11 00:19:42;;;;;;;25.45;10.75;;;-2.40;99.90;;;;;;5020948;28;20095;-66
2024/01/11 00:22:07;;;;;;;21.85;11.25;;;-2.40;99.90;;;;;;5020739;28;20417;-66
2024/01/11 00:24:33;;;;;;;21.25;11.55;;;-2.50;99.90;;;;;;5037847;28;20116;-67
2024/01/11 00:26:59;;;;;;;23.85;10.80;;;-2.40;99.90;;;;;;5038010;28;20068;-67
2024/01/11 00:29:25;;;;;;;22.63;11.73;;;-2.50;99.90;;;;;;5036965;28;20034;-67
2024/01/11 00:31:50;;;;;;;22.65;10.90;;;-2.50;99.90;;;;;;5036949;28;20091;-66
2024/01/11 00:34:16;;;;;;;21.75;11.38;;;-2.50;99.90;;;;;;5036818;28;20330;-67
2024/01/11 00:36:42;;;;;;;21.10;10.70;;;-2.50;1.00;;;;;;5036998;28;20029;-67
2024/01/11 00:39:08;;;;;;;24.20;12.35;;;-2.50;99.90;;;;;;5037574;28;20037;-67
2024/01/11 00:41:34;;;;;;;20.60;10.20;;;-2.50;99.90;;;;;;5004021;28;20049;-67
2024/01/11 00:44:00;;;;;;;22.70;11.13;;;-2.50;99.90;;;;;;5036806;28;20426;-67
2024/01/11 00:46:26;;;;;;;23.63;12.23;;;-2.50;99.90;;;;;;5036694;28;20067;-67
2024/01/11 00:48:51;;;;;;;24.55;11.68;;;-2.50;99.90;;;;;;5036617;28;20404;-66
2024/01/11 00:51:17;;;;;;;22.15;11.43;;;-2.50;99.90;;;;;;5037262;28;20043;-67
2024/01/11 00:53:43;;;;;;;21.17;11.05;;;-2.50;99.90;;;;;;5036542;28;20495;-67
2024/01/11 00:56:16;;;;;;;21.58;11.57;;;-2.50;99.90;;;;;;5037257;28;20060;-67
2024/01/11 00:58:42;;;;;;;22.45;11.55;;;-2.50;99.90;;;;;;5037160;28;20052;-67
2024/01/11 01:01:12;;;;;;;23.77;10.90;;;-2.40;99.90;;;;;;5036525;28;20027;-67
2024/01/11 01:03:38;;;;;;;24.75;11.32;;;-2.40;99.90;;;;;;5036365;28;20091;-67
2024/01/11 01:06:04;;;;;;;25.33;11.95;;;-2.50;99.90;;;;;;5036406;28;20404;-67
2024/01/11 01:08:30;;;;;;;23.67;11.70;;;-2.50;99.90;;;;;;5036335;28;20033;-67
2024/01/11 01:10:56;;;;;;;20.95;11.60;;;-2.50;99.90;;;;;;5036308;28;20040;-67
2024/01/11 01:13:22;;;;;;;23.70;11.10;;;-2.60;1.00;;;;;;5037085;28;20037;-67
2024/01/11 01:15:48;;;;;;;22.63;11.20;;;-2.50;1.00;;;;;;5037019;28;20400;-67
2024/01/11 01:18:14;;;;;;;25.55;12.30;;;-2.50;1.00;;;;;;5019930;28;20056;-67
2024/01/11 01:20:40;;;;;;;24.63;11.32;;;-2.50;1.00;;;;;;5036161;28;20075;-67
2024/01/11 01:23:06;;;;;;;23.77;11.63;;;-2.50;99.90;;;;;;5036311;28;20034;-67
2024/01/11 01:25:34;;;;;;;24.23;12.68;;;-2.50;1.00;;;;;;5036087;28;20041;-67
2024/01/11 01:28:00;;;;;;;21.02;10.85;;;-2.50;99.90;;;;;;5036033;28;20037;-67
2024/01/11 01:30:29;;;;;;;29.10;12.23;;;-2.40;99.90;;;;;;5036694;28;20037;-67
2024/01/11 01:32:56;;;;;;;26.33;12.73;;;-2.40;99.90;;;;;;5019587;28;20030;-67
2024/01/11 01:35:22;;;;;;;26.35;11.98;;;-2.50;1.00;;;;;;5036767;28;20034;-67
2024/01/11 01:37:47;;;;;;;23.63;11.25;;;-2.50;1.00;;;;;;5036263;28;20056;-67
2024/01/11 01:40:13;;;;;;;29.98;11.80;;;-2.50;1.00;;;;;;5035885;28;20081;-67
2024/01/11 01:42:46;;;;;;;22.73;11.65;;;-2.60;1.00;;;;;;5035995;28;20044;-67
2024/01/11 01:45:12;;;;;;;23.35;12.10;;;-2.60;1.00;;;;;;5036685;28;20048;-67
2024/01/11 01:47:40;;;;;;;27.17;12.45;;;-2.50;1.00;;;;;;5035950;28;20309;-68
2024/01/11 01:50:09;;;;;;;24.85;12.25;;;-2.50;1.00;;;;;;5036008;28;20029;-67
2024/01/11 01:52:36;;;;;;;23.15;11.85;;;-2.60;1.00;;;;;;5035869;28;20274;-68
2024/01/11 01:55:04;;;;;;;25.90;11.75;;;-2.60;1.00;;;;;;5036632;28;20057;-67
2024/01/11 01:57:32;;;;;;;24.58;12.25;;;-2.70;1.00;;;;;;5019461;28;20401;-67
2024/01/11 01:59:59;;;;;;;22.02;12.38;;;-2.60;1.00;;;;;;5036595;28;20038;-67
2024/01/11 02:02:26;;;;;;;27.27;12.15;;;-2.60;1.00;;;;;;5036484;28;20026;-67
2024/01/11 02:04:52;;;;;;;24.30;11.27;;;-2.70;1.00;;;;;;5036473;28;20056;-67
2024/01/11 02:07:19;;;;;;;25.15;11.95;;;-2.80;1.00;;;;;;5035887;28;20057;-67
2024/01/11 02:09:45;;;;;;;28.33;12.80;;;-2.70;1.00;;;;;;5019202;28;20052;-67
2024/01/11 02:12:12;;;;;;;28.58;11.98;;;-2.60;1.00;;;;;;5019484;28;20404;-68
2024/01/11 02:14:38;;;;;;;25.80;12.05;;;-2.60;1.00;;;;;;5035760;28;20030;-67
2024/01/11 02:17:04;;;;;;;24.73;12.07;;;-2.70;1.00;;;;;;5019231;28;20021;-67
2024/01/11 02:19:30;;;;;;;29.33;13.35;;;-2.80;1.00;;;;;;5036325;28;20041;-66
2024/01/11 02:22:01;;;;;;;23.42;11.98;;;-2.80;1.00;;;;;;5036315;28;20412;-66
2024/01/11 02:24:27;;;;;;;28.30;12.35;;;-2.80;1.00;;;;;;5035611;28;20018;-66
2024/01/11 02:27:04;;;;;;;26.35;12.48;;;-2.90;1.00;;;;;;5036302;28;20026;-67
2024/01/11 02:29:31;;;;;;;25.23;11.57;;;-2.90;1.00;;;;;;5036146;28;20068;-67
2024/01/11 02:31:58;;;;;;;26.02;12.15;;;-2.90;1.00;;;;;;5035440;28;20025;-67
2024/01/11 02:34:26;;;;;;;26.30;12.43;;;-3.00;1.00;;;;;;5036138;28;20048;-66
2024/01/11 02:36:53;;;;;;;26.13;12.48;;;-3.00;1.00;;;;;;5036213;28;20017;-67
2024/01/11 02:39:20;;;;;;;26.52;12.52;;;-3.00;1.00;;;;;;5035995;28;20112;-66
2024/01/11 02:41:47;;;;;;;22.88;11.65;;;-3.00;1.00;;;;;;5039038;28;20041;-67
2024/01/11 02:44:13;;;;;;;27.75;12.80;;;-3.00;1.00;;;;;;5039710;28;20053;-67
2024/01/11 02:46:38;;;;;;;24.45;11.85;;;-3.00;1.00;;;;;;5039748;28;20080;-67
2024/01/11 02:49:04;;;;;;;25.90;12.73;;;-3.00;1.00;;;;;;5039654;28;20301;-67
2024/01/11 02:51:30;;;;;;;25.17;12.75;;;-3.00;1.00;;;;;;5039760;28;20095;-67
2024/01/11 02:53:56;;;;;;;27.67;13.02;;;-2.90;1.00;;;;;;5039014;28;20139;-67
2024/01/11 02:56:21;;;;;;;22.60;12.02;;;-2.80;1.00;;;;;;5039689;28;20281;-66
2024/01/11 02:58:47;;;;;;;23.55;11.93;;;-2.80;1.00;;;;;;5038826;28;20041;-68
2024/01/11 03:01:13;;;;;;;26.67;13.18;;;-2.80;1.00;;;;;;5038817;28;20367;-67
2024/01/11 03:03:39;;;;;;;26.50;12.75;;;-2.80;1.00;;;;;;5038775;28;20100;-67
2024/01/11 03:06:05;;;;;;;25.63;11.95;;;-2.90;1.00;;;;;;5022388;28;20049;-67
2024/01/11 03:08:31;;;;;;;27.45;12.57;;;-2.90;1.00;;;;;;5038796;28;20304;-67
2024/01/11 03:10:57;;;;;;;28.10;12.90;;;-2.90;1.00;;;;;;5039235;28;20068;-68
2024/01/11 03:13:23;;;;;;;27.65;12.63;;;-2.90;1.00;;;;;;5038525;28;20385;-68
2024/01/11 03:15:49;;;;;;;23.73;11.77;;;-2.90;1.00;;;;;;5039242;28;20317;-67
2024/01/11 03:18:14;;;;;;;28.25;12.27;;;-2.90;1.00;;;;;;5039119;28;20099;-68
2024/01/11 03:20:40;;;;;;;27.00;13.52;;;-2.90;1.00;;;;;;5038471;28;20041;-67
2024/01/11 03:23:06;;;;;;;24.88;12.38;;;-2.90;1.00;;;;;;5038370;28;20038;-68
2024/01/11 03:25:32;;;;;;;30.80;12.25;;;-3.00;1.00;;;;;;5038930;28;20059;-67
2024/01/11 03:28:01;;;;;;;32.08;12.40;;;-3.00;1.00;;;;;;5038204;28;20044;-67
2024/01/11 03:30:28;;;;;;;23.60;12.27;;;-3.00;1.00;;;;;;5038802;28;20026;-68
2024/01/11 03:32:54;;;;;;;25.67;12.50;;;-3.00;1.00;;;;;;5039058;28;20116;-67
2024/01/11 03:35:20;;;;;;;27.20;12.90;;;-3.00;1.00;;;;;;5038077;28;20124;-67
2024/01/11 03:37:46;;;;;;;27.02;12.45;;;-3.00;1.00;;;;;;5038802;28;20033;-68
2024/01/11 03:40:12;;;;;;;26.10;12.27;;;-3.00;1.00;;;;;;5005257;28;20159;-68
2024/01/11 03:42:39;;;;;;;27.98;12.90;;;-2.90;1.00;;;;;;5038848;28;20080;-67
2024/01/11 03:45:05;;;;;;;26.33;12.80;;;-3.00;1.00;;;;;;5038633;28;20033;-67
2024/01/11 03:47:31;;;;;;;21.83;12.32;;;-2.90;1.00;;;;;;5037812;28;20109;-67
2024/01/11 03:49:57;;;;;;;26.35;12.20;;;-2.90;1.00;;;;;;5038510;28;20076;-67
2024/01/11 03:52:23;;;;;;;23.42;11.85;;;-2.90;1.00;;;;;;5037705;28;20038;-67
2024/01/11 03:54:48;;;;;;;23.63;11.90;;;-3.00;1.00;;;;;;5021261;28;20029;-67
2024/01/11 03:57:15;;;;;;;25.95;12.55;;;-3.00;1.00;;;;;;5021253;28;20041;-68
2024/01/11 03:59:41;;;;;;;26.63;13.05;;;-3.10;1.00;;;;;;5037653;28;20300;-67
2024/01/11 04:02:07;;;;;;;27.42;11.88;;;-3.10;1.00;;;;;;5037507;28;20385;-69
2024/01/11 04:04:33;;;;;;;26.63;12.23;;;-3.10;1.00;;;;;;5004663;28;20091;-67
2024/01/11 04:06:59;;;;;;;24.67;12.68;;;-3.10;1.00;;;;;;5037566;28;20044;-67
2024/01/11 04:09:25;;;;;;;25.73;12.20;;;-3.00;1.00;;;;;;5038100;28;20029;-67
2024/01/11 04:11:50;;;;;;;24.13;12.48;;;-3.00;1.00;;;;;;5037353;28;20298;-67
2024/01/11 04:14:16;;;;;;;29.15;12.75;;;-3.00;1.00;;;;;;5037998;28;20033;-68
2024/01/11 04:16:42;;;;;;;27.35;12.48;;;-3.00;1.00;;;;;;5037244;28;20044;-68
2024/01/11 04:19:09;;;;;;;28.45;12.88;;;-3.00;1.00;;;;;;5037784;28;20053;-68
2024/01/11 04:21:35;;;;;;;23.88;11.57;;;-3.00;1.00;;;;;;5037545;28;20041;-68
2024/01/11 04:24:00;;;;;;;27.27;12.63;;;-3.00;1.00;;;;;;5037828;28;20029;-67
2024/01/11 04:26:26;;;;;;;27.13;12.50;;;-3.00;1.00;;;;;;5037127;28;20047;-68
2024/01/11 04:28:53;;;;;;;29.50;12.77;;;-3.00;1.00;;;;;;5037049;28;20056;-68
2024/01/11 04:31:19;;;;;;;30.98;12.57;;;-3.00;1.00;;;;;;5036987;28;20041;-68
2024/01/11 04:33:45;;;;;;;26.15;12.35;;;-2.90;1.00;;;;;;5037840;28;20049;-67
2024/01/11 04:36:12;;;;;;;26.88;12.50;;;-3.00;1.00;;;;;;5037557;28;20034;-67
2024/01/11 04:38:38;;;;;;;29.30;13.02;;;-3.00;1.00;;;;;;5037777;28;20080;-67
2024/01/11 04:41:08;;;;;;;28.50;12.95;;;-3.00;1.00;;;;;;5020242;28;20409;-67
2024/01/11 04:43:37;;;;;;;27.17;12.25;;;-2.90;1.00;;;;;;5036892;28;20309;-66
2024/01/11 04:46:03;;;;;;;25.08;12.13;;;-2.90;1.00;;;;;;5020348;28;20045;-67
2024/01/11 04:48:28;;;;;;;28.25;12.75;;;-2.90;1.00;;;;;;5036781;28;20133;-67
2024/01/11 04:50:54;;;;;;;27.85;12.50;;;-2.90;1.00;;;;;;5036741;28;20061;-67
2024/01/11 04:53:20;;;;;;;27.85;12.73;;;-2.90;1.00;;;;;;5036788;28;20088;-67
2024/01/11 04:55:46;;;;;;;23.60;12.15;;;-3.00;1.00;;;;;;5036505;28;20101;-67
2024/01/11 04:58:12;;;;;;;28.33;13.15;;;-3.00;1.00;;;;;;5020178;28;20396;-67
2024/01/11 05:00:41;;;;;;;29.75;13.02;;;-3.10;1.00;;;;;;5020317;28;20075;-67
2024/01/11 05:03:07;;;;;;;30.05;12.68;;;-3.10;1.00;;;;;;5035906;28;20041;-67
2024/01/11 05:05:32;;;;;;;26.35;12.93;;;-3.00;1.00;;;;;;5036348;28;20031;-67
2024/01/11 05:07:58;;;;;;;29.10;13.18;;;-3.10;1.00;;;;;;5037160;28;20052;-67
2024/01/11 05:10:24;;;;;;;26.08;12.23;;;-3.10;1.00;;;;;;5036167;28;20033;-67
2024/01/11 05:12:50;;;;;;;27.05;12.65;;;-3.20;1.00;;;;;;5036294;28;20018;-67
2024/01/11 05:15:16;;;;;;;24.20;11.75;;;-3.20;1.00;;;;;;5036389;28;20033;-67
2024/01/11 05:17:42;;;;;;;26.20;13.25;;;-3.10;1.00;;;;;;5019926;28;20341;-67
2024/01/11 05:20:08;;;;;;;27.15;12.23;;;-3.00;1.00;;;;;;5003495;28;20044;-67
2024/01/11 05:22:34;;;;;;;27.42;12.55;;;-3.00;1.00;;;;;;5036697;28;20124;-67
2024/01/11 05:25:00;;;;;;;26.65;12.20;;;-3.00;1.00;;;;;;5036891;28;20456;-68
2024/01/11 05:27:25;;;;;;;25.63;12.52;;;-3.00;1.00;;;;;;5036016;28;20040;-67
2024/01/11 05:29:52;;;;;;;28.08;12.68;;;-3.00;1.00;;;;;;5036716;28;20041;-67
2024/01/11 05:32:17;;;;;;;24.88;11.68;;;-3.00;1.00;;;;;;5036777;28;20042;-67
2024/01/11 05:34:43;;;;;;;24.77;11.98;;;-3.10;1.00;;;;;;5036043;28;20076;-67
2024/01/11 05:37:09;;;;;;;31.08;13.48;;;-3.10;1.00;;;;;;5036846;28;20447;-68
2024/01/11 05:39:35;;;;;;;28.38;12.65;;;-3.10;1.00;;;;;;5036829;28;20033;-68
2024/01/11 05:42:01;;;;;;;27.67;13.20;;;-3.10;1.00;;;;;;5035951;28;20021;-68
2024/01/11 05:44:26;;;;;;;27.65;13.65;;;-3.10;1.00;;;;;;5003274;28;20046;-68
2024/01/11 05:46:52;;;;;;;29.70;13.43;;;-3.10;1.00;;;;;;5036167;28;20076;-69
2024/01/11 05:49:18;;;;;;;29.05;12.50;;;-3.00;1.00;;;;;;5019549;28;20038;-68
2024/01/11 05:51:44;;;;;;;25.23;12.30;;;-3.00;1.00;;;;;;5036542;28;20306;-68
2024/01/11 05:54:09;;;;;;;26.30;12.20;;;-3.10;1.00;;;;;;5019453;28;20047;-68
2024/01/11 05:56:35;;;;;;;24.33;12.13;;;-3.10;1.00;;;;;;5035868;28;20022;-68
2024/01/11 05:59:01;;;;;;;29.23;12.25;;;-3.10;1.00;;;;;;5019365;28;20102;-68
2024/01/11 06:01:27;;;;;;;26.10;11.93;;;-3.10;1.00;;;;;;5035661;28;20303;-68
2024/01/11 06:03:52;;;;;;;28.55;12.77;;;-3.10;1.00;;;;;;5036376;28;20037;-68
2024/01/11 06:06:18;;;;;;;28.95;12.77;;;-3.20;1.00;;;;;;5036260;28;20102;-68
2024/01/11 06:08:44;;;;;;;24.25;11.20;;;-3.00;1.00;;;;;;5019420;28;20040;-68
2024/01/11 06:11:10;;;;;;;24.98;12.25;;;-3.10;1.00;;;;;;5036213;28;20030;-68
2024/01/11 06:13:36;;;;;;;30.38;13.18;;;-3.00;1.00;;;;;;5036375;28;20086;-68
2024/01/11 06:16:02;;;;;;;26.45;11.90;;;-3.10;1.00;;;;;;5038327;28;20083;-69
2024/01/11 06:18:28;;;;;;;26.88;12.25;;;-3.10;1.00;;;;;;5039599;28;20124;-68
2024/01/11 06:20:53;;;;;;;27.40;12.70;;;-3.20;1.00;;;;;;5040070;28;20325;-68
2024/01/11 06:23:19;;;;;;;29.02;13.05;;;-3.20;1.00;;;;;;5023053;28;20112;-68
2024/01/11 06:25:46;;;;;;;31.83;12.90;;;-3.20;1.00;;;;;;5039483;28;20038;-68
2024/01/11 06:28:12;;;;;;;26.63;12.27;;;-3.10;1.00;;;;;;5022990;28;20041;-68
2024/01/11 06:30:37;;;;;;;27.48;12.63;;;-3.10;1.00;;;;;;5039232;28;20344;-68
2024/01/11 06:33:03;;;;;;;28.05;12.27;;;-3.10;1.00;;;;;;5022940;28;20037;-67
2024/01/11 06:35:29;;;;;;;26.23;12.70;;;-3.20;1.00;;;;;;5039195;28;20057;-68
2024/01/11 06:37:55;;;;;;;31.35;13.38;;;-3.20;1.00;;;;;;5022503;28;20042;-68
2024/01/11 06:40:21;;;;;;;28.90;13.35;;;-3.20;1.00;;;;;;5038784;28;20111;-68
2024/01/11 06:42:47;;;;;;;28.50;12.80;;;-3.30;1.00;;;;;;5038999;28;20037;-68
2024/01/11 06:45:12;;;;;;;27.13;12.50;;;-3.30;1.00;;;;;;5022404;28;20034;-68
2024/01/11 06:47:38;;;;;;;24.30;12.10;;;-3.30;1.00;;;;;;5022575;28;20049;-68
2024/01/11 06:50:05;;;;;;;24.50;12.43;;;-3.40;1.00;;;;;;5039524;28;20064;-69
2024/01/11 06:52:30;;;;;;;24.45;12.00;;;-3.20;1.00;;;;;;5038841;28;20030;-69
2024/01/11 06:54:56;;;;;;;25.05;11.98;;;-3.20;1.00;;;;;;5022503;28;20124;-68
2024/01/11 06:57:22;;;;;;;27.80;12.75;;;-3.20;1.00;;;;;;5022673;28;20029;-69
2024/01/11 06:59:49;;;;;;;25.65;11.60;;;-3.30;1.00;;;;;;5039065;28;20351;-68
2024/01/11 07:02:14;;;;;;;26.77;12.43;;;-3.30;1.00;;;;;;5006107;28;20472;-68
2024/01/11 07:04:44;;;;;;;29.80;12.90;;;-3.30;1.00;;;;;;5038898;28;20330;-68
2024/01/11 07:07:10;;;;;;;26.02;12.25;;;-3.40;1.00;;;;;;5022175;28;20340;-68
2024/01/11 07:09:36;;;;;;;23.92;11.77;;;-3.50;1.00;;;;;;5038344;28;20030;-68
2024/01/11 07:12:02;;;;;;;25.52;11.80;;;-3.40;1.00;;;;;;5038540;28;20041;-68
2024/01/11 07:14:29;;;;;;;21.33;11.05;;;-3.40;1.00;;;;;;5038427;28;20301;-68
2024/01/11 07:16:55;;;;;;;28.27;12.48;;;-3.40;1.00;;;;;;5039394;28;20413;-68
2024/01/11 07:19:21;;;;;;;24.00;12.30;;;-3.40;1.00;;;;;;5021937;28;20103;-69
2024/01/11 07:21:47;;;;;;;29.27;11.05;;;-3.40;1.00;;;;;;5038958;28;20044;-68
2024/01/11 07:24:13;;;;;;;26.05;12.40;;;-3.50;1.00;;;;;;5038921;28;20025;-69
2024/01/11 07:26:39;;;;;;;22.92;11.55;;;-3.50;1.00;;;;;;5038595;28;20052;-69
2024/01/11 07:29:05;;;;;;;26.90;12.00;;;-3.50;1.00;;;;;;5038180;28;20029;-69
2024/01/11 07:31:31;;;;;;;31.67;12.07;;;-3.50;1.00;;;;;;5038039;28;20045;-68
2024/01/11 07:33:57;;;;;;;25.60;13.07;;;-1.50;72.70;;;;;;5005523;28;20309;-68
2024/01/11 07:36:23;;;;;;;26.23;12.65;;;-2.10;1.00;;;;;;5037967;28;20084;-68
2024/01/11 07:38:49;;;;;;;23.50;11.93;;;-2.40;1.00;;;;;;5005206;28;20120;-68
2024/01/11 07:41:14;;;;;;;27.70;12.35;;;-2.80;1.00;;;;;;5037617;28;20061;-68
2024/01/11 07:43:40;;;;;;;24.27;11.18;;;-3.00;1.00;;;;;;5021298;28;20029;-66
2024/01/11 07:46:07;;;;;;;27.02;11.98;;;-2.90;1.00;;;;;;5021469;28;20087;-65
2024/01/11 07:48:33;;;;;;;25.85;12.32;;;-0.20;1.00;;;;;;5021471;28;20053;-67
2024/01/11 07:50:59;;;;;;;20.40;11.77;;;0.20;1.00;;;;;;5037679;28;20293;-69
2024/01/11 07:53:26;;;;;;;24.25;11.52;;;-0.90;1.00;;;;;;5021234;28;20305;-69
2024/01/11 07:55:52;;;;;;;25.88;12.48;;;-1.60;1.00;;;;;;5037702;28;20352;-69
2024/01/11 07:58:18;;;;;;;24.05;12.20;;;-2.10;1.00;;;;;;5037570;28;20108;-69
2024/01/11 08:00:44;;;;;;;26.33;12.57;;;-2.50;1.00;;;;;;5038236;28;20141;-69
2024/01/11 08:03:10;;;;;;;22.88;11.05;;;-2.70;99.90;;;;;;5037367;28;20060;-69
2024/01/11 08:05:36;;;;;;;25.75;11.88;;;-3.00;1.00;;;;;;5038382;28;20033;-69
2024/01/11 08:08:03;;;;;;;27.30;11.70;;;-3.00;1.00;;;;;;5037434;28;20026;-69
2024/01/11 08:10:32;;;;;;;24.35;10.95;;;-3.10;1.00;;;;;;5037305;28;20045;-69
2024/01/11 08:12:59;;;;;;;22.90;11.32;;;-3.20;1.00;;;;;;5037376;28;20120;-69
2024/01/11 08:15:25;;;;;;;26.27;11.57;;;-3.20;1.00;;;;;;5020782;28;20033;-69
2024/01/11 08:17:51;;;;;;;23.80;11.68;;;-3.30;1.00;;;;;;5038134;28;20032;-69
2024/01/11 08:20:17;;;;;;;24.88;11.90;;;-3.20;1.00;;;;;;5037192;28;20042;-69
2024/01/11 08:22:48;;;;;;;27.42;14.43;;;-3.20;1.00;;;;;;5037148;28;20313;-69
2024/01/11 08:25:14;;;;;;;27.88;14.20;;;-3.20;1.00;;;;;;5037020;28;20052;-69
2024/01/11 08:27:40;;;;;;;26.50;11.95;;;-3.20;1.00;;;;;;5020520;28;20037;-69
2024/01/11 08:30:08;;;;;;;28.23;13.88;;;-3.20;1.00;;;;;;5020525;28;20064;-69
2024/01/11 08:32:38;;;;;;;26.42;13.07;;;-3.20;1.00;;;;;;5004613;28;20029;-69
2024/01/11 08:35:06;;;;;;;26.45;12.63;;;-3.20;1.00;;;;;;5036931;28;20034;-68
2024/01/11 08:37:32;;;;;;;22.90;12.05;;;-3.20;1.00;;;;;;5035998;28;20030;-69
2024/01/11 08:39:58;;;;;;;28.30;13.00;;;-3.00;1.00;;;;;;5036738;28;20385;-69
2024/01/11 08:42:24;;;;;;;23.40;11.30;;;-3.00;1.00;;;;;;5020325;28;20057;-69
2024/01/11 08:44:51;;;;;;;25.30;12.55;;;-3.00;1.00;;;;;;5020343;28;20090;-68
2024/01/11 08:47:17;;;;;;;26.38;11.98;;;-3.00;1.00;;;;;;5036503;28;20030;-68
2024/01/11 08:49:43;;;;;;;34.15;13.13;;;-2.90;1.00;;;;;;5036456;28;20029;-69
2024/01/11 08:52:09;;;;;;;24.23;11.52;;;-2.80;1.00;;;;;;5036575;28;20033;-68
2024/01/11 08:54:35;;;;;;;25.42;12.30;;;-2.90;1.00;;;;;;5020194;28;20139;-69
2024/01/11 08:57:01;;;;;;;25.77;12.60;;;-2.90;1.00;;;;;;5036432;28;20163;-69
2024/01/11 08:59:27;;;;;;;23.30;12.20;;;-2.80;1.00;;;;;;5036343;28;20408;-69
2024/01/11 09:01:53;;;;;;;28.90;12.80;;;-2.70;1.00;;;;;;5037198;28;20029;-68
2024/01/11 09:04:19;;;;;;;25.55;11.82;;;-2.60;1.00;;;;;;5036411;28;20041;-68
2024/01/11 09:06:45;;;;;;;30.02;12.57;;;-2.40;1.00;;;;;;5037186;28;20473;-69
2024/01/11 09:09:13;;;;;;;24.08;12.50;;;-2.40;1.00;;;;;;5036306;28;20057;-69
2024/01/11 09:11:42;;;;;;;26.13;13.38;;;-2.30;1.00;;;;;;5036077;28;20306;-69
2024/01/11 09:14:10;;;;;;;25.80;13.23;;;-2.30;1.00;;;;;;5019518;28;20095;-70
2024/01/11 09:16:37;;;;;;;24.63;12.77;;;-2.30;1.00;;;;;;5036278;28;20337;-70
2024/01/11 09:19:02;;;;;;;26.48;13.13;;;-2.30;1.00;;;;;;5036033;28;20029;-69
2024/01/11 09:21:28;;;;;;;27.27;12.77;;;-2.20;99.90;;;;;;5036634;28;20095;-69
2024/01/11 09:23:55;;;;;;;27.67;12.23;;;-2.20;99.90;;;;;;5036807;28;20072;-69
2024/01/11 09:26:22;;;;;;;21.88;12.45;;;-2.20;99.90;;;;;;5036100;28;20065;-69
2024/01/11 09:28:48;;;;;;;31.73;12.88;;;-2.00;99.90;;;;;;5036212;28;20084;-68
2024/01/11 09:31:14;;;;;;;27.55;12.85;;;-1.90;99.90;;;;;;5019385;28;20116;-68
2024/01/11 09:33:42;;;;;;;26.25;12.80;;;-1.90;94.80;;;;;;5019429;28;20084;-67
2024/01/11 09:36:08;;;;;;;23.73;11.70;;;-1.80;99.90;;;;;;5036707;28;20048;-69
2024/01/11 09:38:34;;;;;;;24.27;11.82;;;-1.80;99.90;;;;;;5035818;28;20041;-68
2024/01/11 09:41:13;;;;;;;24.33;11.90;;;-1.90;1.00;;;;;;5035587;28;20053;-67
2024/01/11 09:43:41;;;;;;;26.40;12.52;;;-1.70;1.00;;;;;;5036885;28;20121;-68
2024/01/11 09:46:09;;;;;;;27.45;12.18;;;-1.60;1.00;;;;;;5036678;28;20087;-67
2024/01/11 09:48:37;;;;;;;30.58;12.90;;;-1.60;99.90;;;;;;5036923;28;20026;-68
2024/01/11 09:51:04;;;;;;;24.48;12.60;;;-1.50;99.90;;;;;;5040726;28;20045;-67
2024/01/11 09:53:32;;;;;;;25.48;12.68;;;-1.40;1.00;;;;;;5040734;28;20065;-67
2024/01/11 09:55:59;;;;;;;24.42;13.10;;;-1.30;99.90;;;;;;5040711;28;20156;-67
2024/01/11 09:58:29;;;;;;;24.85;12.15;;;-1.30;1.00;;;;;;5039619;28;20034;-67
2024/01/11 10:00:56;;;;;;;24.50;12.82;;;-1.00;99.90;;;;;;5023816;28;20041;-66
2024/01/11 10:03:26;;;;;;;22.88;12.30;;;-0.40;99.90;;;;;;5039712;28;20278;-67
2024/01/11 10:05:57;;;;;;;24.27;11.82;;;0.20;1.00;;;;;;5023105;28;20095;-66
2024/01/11 10:08:23;;;;;;;24.38;11.70;;;1.00;40.90;;;;;;5039523;28;20033;-65
2024/01/11 10:10:49;;;;;;;25.50;12.73;;;1.70;1.00;;;;;;5039757;28;20033;-64
2024/01/11 10:13:16;;;;;;;24.55;11.98;;;2.30;1.00;;;;;;5040389;28;20025;-65
2024/01/11 10:15:46;;;;;;;20.67;10.98;;;2.90;99.90;;;;;;5040297;28;20120;-64
2024/01/11 10:18:12;;;;;;;24.20;11.93;;;3.30;99.90;;;;;;5040311;28;20040;-64
2024/01/11 10:20:38;;;;;;;24.50;12.38;;;3.80;1.00;;;;;;5022925;28;20063;-64
2024/01/11 10:23:04;;;;;;;22.05;12.68;;;4.20;1.00;;;;;;5039324;28;20416;-65
2024/01/11 10:25:30;;;;;;;24.17;12.60;;;4.50;99.90;;;;;;5039917;28;20416;-63
2024/01/11 10:27:56;;;;;;;22.38;12.00;;;4.90;99.90;;;;;;5023020;28;20033;-63
2024/01/11 10:30:26;;;;;;;23.77;13.20;;;5.30;99.90;;;;;;5039219;28;20044;-63
2024/01/11 10:32:51;;;;;;;20.20;12.45;;;5.70;99.90;;;;;;5039831;28;20030;-63
2024/01/11 10:35:18;;;;;;;21.58;12.05;;;6.00;99.90;;;;;;5039844;28;20030;-63
2024/01/11 10:37:44;;;;;;;24.50;12.57;;;6.10;99.90;;;;;;5022890;28;20095;-63
2024/01/11 10:40:12;;;;;;;23.17;13.18;;;6.50;99.90;;;;;;5022425;28;20083;-63
2024/01/11 10:42:51;;;;;;;22.10;12.73;;;6.90;70.10;;;;;;5038973;28;20297;-64
2024/01/11 10:45:19;;;;;;;21.33;11.55;;;7.00;29.60;;;;;;5039017;28;20334;-64
2024/01/11 10:47:50;;;;;;;23.20;13.50;;;7.10;7.60;;;;;;5039050;28;20124;-64
2024/01/11 10:50:17;;;;;;;21.23;12.60;;;7.30;1.00;;;;;;5039605;28;20286;-65
2024/01/11 10:53:10;;;;;;;22.17;13.05;;;7.60;1.00;;;;;;5039611;28;20021;-65
2024/01/11 10:55:37;;;;;;;18.92;12.38;;;7.80;1.00;;;;;;5020469;28;20041;-65
2024/01/11 10:58:04;;;;;;;19.27;12.13;;;8.00;1.00;;;;;;5022242;28;20389;-65
2024/01/11 11:00:31;;;;;;;22.30;13.55;;;8.30;1.00;;;;;;5038740;28;20140;-65
2024/01/11 11:03:00;;;;;;;22.85;13.48;;;8.50;1.00;;;;;;5038601;28;20107;-66
2024/01/11 11:05:29;;;;;;;21.25;12.75;;;8.80;1.00;;;;;;5038686;28;20040;-67
2024/01/11 11:07:55;;;;;;;21.60;13.35;;;8.90;1.00;;;;;;5038672;28;20370;-66
2024/01/11 11:10:22;;;;;;;21.42;13.25;;;8.90;1.00;;;;;;5039251;28;20367;-66
2024/01/11 11:12:48;;;;;;;24.73;13.40;;;9.10;1.00;;;;;;5038549;28;20314;-66
2024/01/11 11:15:15;;;;;;;21.15;12.57;;;9.30;1.00;;;;;;5038371;28;20034;-66
2024/01/11 11:17:43;;;;;;;23.02;14.13;;;9.30;1.00;;;;;;5038408;28;20091;-65
2024/01/11 11:20:11;;;;;;;20.58;13.88;;;9.50;1.00;;;;;;5039136;28;20064;-65
2024/01/11 11:22:40;;;;;;;22.77;13.13;;;9.50;1.00;;;;;;5039126;28;20025;-65
2024/01/11 11:25:10;;;;;;;20.55;13.88;;;9.30;1.00;;;;;;5038248;28;20103;-64
2024/01/11 11:27:37;;;;;;;22.02;13.75;;;8.80;1.00;;;;;;5038292;28;20029;-64
2024/01/11 11:30:05;;;;;;;21.88;13.75;;;8.40;1.00;;;;;;5038114;28;20411;-64
2024/01/11 11:32:38;;;;;;;25.52;14.32;;;7.70;1.00;;;;;;5038853;28;20033;-63
2024/01/11 11:35:04;;;;;;;;;;;7.10;1.00;;;;;;5038613;28;20437;-65
2024/01/11 11:37:31;;;;;;;22.98;14.00;;;6.50;1.00;;;;;;5021514;28;20310;-64
2024/01/11 11:39:58;;;;;;;23.60;13.35;;;6.00;1.00;;;;;;5021684;28;20056;-65
2024/01/11 11:42:25;;;;;;;24.38;13.45;;;5.60;1.00;;;;;;5021589;28;20068;-64
2024/01/11 11:44:52;;;;;;;24.70;14.45;;;5.20;1.00;;;;;;5038693;28;20393;-64
2024/01/11 11:47:22;;;;;;;22.65;13.82;;;5.00;1.00;;;;;;5038619;28;20096;-64
2024/01/11 11:50:01;;;;;;;23.85;14.10;;;4.60;1.00;;;;;;5037833;28;20069;-65
2024/01/11 11:52:27;;;;;;;25.38;13.98;;;4.30;1.00;;;;;;5038519;28;20036;-64
2024/01/11 11:54:54;;;;;;;24.38;13.52;;;4.20;1.00;;;;;;5038014;28;20102;-64
2024/01/11 11:57:21;;;;;;;25.02;14.15;;;4.00;21.00;;;;;;5037762;28;20042;-65
2024/01/11 11:59:49;;;;;;;24.73;12.65;;;4.00;46.30;;;;;;5038451;28;20293;-64
2024/01/11 12:02:17;;;;;;;25.70;13.45;;;3.80;64.40;;;;;;5021330;28;20092;-63
2024/01/11 12:04:48;;;;;;;25.05;13.15;;;3.70;97.30;;;;;;5037659;28;20048;-64
2024/01/11 12:07:15;;;;;;;28.20;13.57;;;3.60;99.90;;;;;;5037685;28;20072;-64
2024/01/11 12:09:41;;;;;;;24.15;12.20;;;3.60;99.90;;;;;;5037724;28;20405;-64
2024/01/11 12:12:08;;;;;;;25.67;13.48;;;3.60;99.90;;;;;;5037305;28;20060;-65
2024/01/11 12:14:34;;;;;;;23.77;13.27;;;3.60;99.90;;;;;;5037137;28;20095;-65
2024/01/11 12:17:00;;;;;;;23.00;13.40;;;3.60;99.90;;;;;;5038047;28;20057;-65
2024/01/11 12:19:26;;;;;;;23.05;12.57;;;3.50;99.90;;;;;;5038055;28;20436;-65
2024/01/11 12:21:52;;;;;;;22.08;13.40;;;3.50;99.90;;;;;;5037311;28;20079;-65
2024/01/11 12:24:21;;;;;;;23.10;12.80;;;3.50;99.90;;;;;;5020771;28;20060;-64
2024/01/11 12:26:50;;;;;;;22.98;12.88;;;3.60;99.90;;;;;;5038080;28;20037;-65
2024/01/11 12:29:18;;;;;;;22.60;13.27;;;3.60;99.90;;;;;;5037797;28;20282;-65
2024/01/11 12:31:44;;;;;;;21.75;13.10;;;3.60;99.90;;;;;;5037886;28;20037;-65